Time;durP1;ratioP1;P1;durP2;ratioP2;P2;SDS_P1;SDS_P2;PMS_P1;PMS_P2;Temp;Humidity;BMP_temperature;BMP_pressure;BME280_temperature;BME280_humidity;BME280_pressure;Samples;Min_cycle;Max_cycle;Signal;HPM_P1;HPM_P2
2022/04/16 00:00:11;;;;;;;;;;;;;;;11.05;56.41;101856.72;4985548;28;7202;-74
2022/04/16 00:02:38;;;;;;;;;;;;;;;11.03;56.60;101853.19;4999273;28;7091;-74
2022/04/16 00:05:05;;;;;;;;;;;;;;;11.04;57.12;101860.09;4987208;28;6873;-74
2022/04/16 00:07:32;;;;;;;;;;;;;;;11.01;56.75;101852.16;4983481;28;6973;-74
2022/04/16 00:09:59;;;;;;;;;;;;;;;11.00;56.27;101853.84;4981929;28;7444;-74
2022/04/16 00:12:25;;;;;;;;;;;;;;;10.97;56.30;101848.50;4982772;28;6938;-74
2022/04/16 00:14:51;;;;;;;;;;;;;;;10.93;56.65;101849.97;4982166;28;6787;-74
2022/04/16 00:17:17;;;;;;;;;;;;;;;10.92;56.19;101837.03;4999826;28;6944;-74
2022/04/16 00:19:43;;;;;;;;;;;;;;;10.89;56.84;101842.81;4982113;28;6918;-74
2022/04/16 00:22:12;;;;;;;;;;;;;;;10.87;56.85;101853.78;4980336;28;7588;-74
2022/04/16 00:24:40;;;;;;;;;;;;;;;10.84;56.70;101851.88;4984825;28;6803;-74
2022/04/16 00:27:09;;;;;;;;;;;;;;;10.81;56.55;101846.53;4983314;28;6807;-74
2022/04/16 00:29:36;;;;;;;;;;;;;;;10.78;56.94;101851.44;4982256;28;7144;-74
2022/04/16 00:32:04;;;;;;;;;;;;;;;10.76;56.72;101848.75;4968106;28;7203;-74
2022/04/16 00:34:31;;;;;;;;;;;;;;;10.74;56.90;101849.47;4982794;28;7082;-74
2022/04/16 00:36:57;;;;;;;;;;;;;;;10.71;56.49;101855.25;4965931;28;7007;-74
2022/04/16 00:39:24;;;;;;;;;;;;;;;10.67;56.77;101848.13;4982165;28;6858;-74
2022/04/16 00:41:50;;;;;;;;;;;;;;;10.63;57.09;101844.47;4983940;28;7116;-74
2022/04/16 00:44:19;;;;;;;;;;;;;;;10.62;56.59;101849.47;4980307;28;7002;-74
2022/04/16 00:46:46;;;;;;;;;;;;;;;10.59;56.57;101855.28;4999195;28;6988;-74
2022/04/16 00:49:12;;;;;;;;;;;;;;;10.55;56.82;101855.84;4968429;28;6868;-74
2022/04/16 00:51:43;;;;;;;;;;;;;;;10.52;56.53;101858.16;4983664;28;6965;-74
2022/04/16 00:54:10;;;;;;;;;;;;;;;10.47;56.47;101860.41;4957933;28;7234;-75
2022/04/16 00:56:36;;;;;;;;;;;;;;;10.44;56.50;101860.19;4968870;28;7050;-74
2022/04/16 00:59:04;;;;;;;;;;;;;;;10.40;56.93;101866.72;4981970;28;7962;-74
2022/04/16 01:01:33;;;;;;;;;;;;;;;10.38;56.45;101868.31;4965895;28;7084;-74
2022/04/16 01:03:59;;;;;;;;;;;;;;;10.35;57.33;101869.75;4984512;28;6803;-74
2022/04/16 01:06:35;;;;;;;;;;;;;;;10.30;57.04;101874.53;4981413;28;7098;-74
2022/04/16 01:09:01;;;;;;;;;;;;;;;10.27;56.77;101876.88;4967413;28;6784;-74
2022/04/16 01:11:26;;;;;;;;;;;;;;;10.23;56.67;101880.00;4979029;28;6792;-74
2022/04/16 01:13:52;;;;;;;;;;;;;;;10.18;56.34;101879.66;4985475;28;6787;-74
2022/04/16 01:16:18;;;;;;;;;;;;;;;10.12;57.02;101876.66;4982099;28;6784;-74
2022/04/16 01:18:47;;;;;;;;;;;;;;;10.06;56.56;101877.09;4981526;28;6784;-74
2022/04/16 01:21:17;;;;;;;;;;;;;;;10.00;56.90;101882.66;4982160;28;6966;-74
2022/04/16 01:23:42;;;;;;;;;;;;;;;9.96;57.55;101882.31;4982330;28;6812;-74
2022/04/16 01:26:08;;;;;;;;;;;;;;;9.92;57.20;101880.28;4982241;28;6780;-74
2022/04/16 01:28:33;;;;;;;;;;;;;;;9.88;57.28;101884.28;4982941;28;6874;-74
2022/04/16 01:30:59;;;;;;;;;;;;;;;9.87;57.05;101879.97;4982420;28;6799;-74
2022/04/16 01:33:25;;;;;;;;;;;;;;;9.85;57.49;101884.06;4980843;28;6922;-74
2022/04/16 01:35:53;;;;;;;;;;;;;;;9.82;57.72;101894.09;4951278;28;6824;-74
2022/04/16 01:38:19;;;;;;;;;;;;;;;9.78;56.57;101895.53;4996553;28;6946;-74
2022/04/16 01:40:45;;;;;;;;;;;;;;;9.74;57.31;101890.94;4981180;28;7033;-74
2022/04/16 01:43:11;;;;;;;;;;;;;;;9.72;57.33;101895.06;4966988;28;6783;-74
2022/04/16 01:45:36;;;;;;;;;;;;;;;9.68;56.70;101899.06;4982369;28;7010;-74
2022/04/16 01:48:02;;;;;;;;;;;;;;;9.66;57.46;101899.75;4998271;28;6788;-74
2022/04/16 01:50:28;;;;;;;;;;;;;;;9.64;57.23;101901.28;4982044;28;6780;-74
2022/04/16 01:52:54;;;;;;;;;;;;;;;9.61;57.92;101895.94;4981683;28;7172;-74
2022/04/16 01:55:20;;;;;;;;;;;;;;;9.57;57.00;101894.78;4979192;28;6865;-74
2022/04/16 01:57:46;;;;;;;;;;;;;;;9.52;57.38;101897.00;4982862;28;6784;-74
2022/04/16 02:00:14;;;;;;;;;;;;;;;9.48;56.95;101889.88;4981816;28;6859;-74
2022/04/16 02:02:42;;;;;;;;;;;;;;;9.45;57.52;101899.88;4984508;28;6895;-74
2022/04/16 02:05:09;;;;;;;;;;;;;;;9.43;57.97;101903.97;4981075;28;7255;-74
2022/04/16 02:07:35;;;;;;;;;;;;;;;9.40;57.17;101903.75;4945158;28;7070;-74
2022/04/16 02:10:03;;;;;;;;;;;;;;;9.40;57.10;101908.88;4963310;28;6981;-74
2022/04/16 02:12:28;;;;;;;;;;;;;;;9.39;57.36;101907.97;4980491;28;6975;-74
2022/04/16 02:14:54;;;;;;;;;;;;;;;9.38;56.73;101905.31;4998095;28;7189;-74
2022/04/16 02:17:20;;;;;;;;;;;;;;;9.38;57.53;101901.06;4963205;28;7103;-74
2022/04/16 02:19:48;;;;;;;;;;;;;;;9.39;57.43;101901.97;4981409;28;6875;-74
2022/04/16 02:22:15;;;;;;;;;;;;;;;9.38;57.55;101905.31;4981623;28;6821;-74
2022/04/16 02:24:42;;;;;;;;;;;;;;;9.36;56.76;101905.19;4980552;28;7264;-74
2022/04/16 02:27:07;;;;;;;;;;;;;;;9.33;57.42;101909.16;4978360;28;6815;-74
2022/04/16 02:29:34;;;;;;;;;;;;;;;9.29;57.17;101914.06;4997188;28;6945;-74
2022/04/16 02:32:02;;;;;;;;;;;;;;;9.27;57.29;101913.06;4981984;28;6819;-74
2022/04/16 02:34:27;;;;;;;;;;;;;;;9.27;57.06;101920.72;4982521;28;7290;-74
2022/04/16 02:36:53;;;;;;;;;;;;;;;9.26;56.90;101918.03;4978377;28;6870;-74
2022/04/16 02:39:19;;;;;;;;;;;;;;;9.24;57.14;101925.59;4997627;28;7169;-74
2022/04/16 02:41:44;;;;;;;;;;;;;;;9.22;57.28;101931.34;4980112;28;6970;-74
2022/04/16 02:47:06;;;;;;;;;;;;;;;9.14;58.03;101929.09;4981933;28;6907;-74
2022/04/16 02:49:34;;;;;;;;;;;;;;;9.11;57.56;101925.41;4980786;28;7892;-74
2022/04/16 02:52:00;;;;;;;;;;;;;;;9.10;57.65;101931.31;4981310;28;6796;-74
2022/04/16 02:54:25;;;;;;;;;;;;;;;9.08;58.15;101928.63;4982382;28;7936;-74
2022/04/16 02:56:51;;;;;;;;;;;;;;;9.06;57.83;101934.38;4979363;28;7079;-74
2022/04/16 02:59:17;;;;;;;;;;;;;;;9.06;57.83;101939.50;4982981;28;6780;-75
2022/04/16 03:01:43;;;;;;;;;;;;;;;9.06;58.61;101936.94;4994101;28;6831;-75
2022/04/16 03:04:08;;;;;;;;;;;;;;;9.07;57.97;101937.06;4995921;28;6800;-75
2022/04/16 03:06:34;;;;;;;;;;;;;;;9.10;58.70;101933.88;4980429;28;6855;-75
2022/04/16 03:09:01;;;;;;;;;;;;;;;9.13;57.93;101946.88;4979851;28;6795;-75
2022/04/16 03:11:26;;;;;;;;;;;;;;;9.14;57.88;101935.88;4979303;28;6804;-75
2022/04/16 03:13:52;;;;;;;;;;;;;;;9.15;58.73;101936.00;4979615;28;8674;-75
2022/04/16 03:19:22;;;;;;;;;;;;;;;9.21;59.35;101938.16;4941585;28;6994;-75
2022/04/16 03:21:48;;;;;;;;;;;;;;;9.22;58.79;101945.03;4941383;28;6797;-75
2022/04/16 03:24:13;;;;;;;;;;;;;;;9.23;58.72;101941.72;4947440;28;6807;-75
2022/04/16 03:26:39;;;;;;;;;;;;;;;9.24;58.02;101951.16;4980548;28;6795;-75
2022/04/16 03:29:05;;;;;;;;;;;;;;;9.24;57.85;101947.75;4995870;28;6823;-75
2022/04/16 03:31:30;;;;;;;;;;;;;;;9.20;58.11;101938.00;4978895;28;6874;-75
2022/04/16 03:33:56;;;;;;;;;;;;;;;9.21;59.06;101945.81;4980723;28;6795;-75
2022/04/16 03:36:22;;;;;;;;;;;;;;;9.21;58.65;101940.72;4980034;28;7022;-75
2022/04/16 03:38:48;;;;;;;;;;;;;;;9.19;58.50;101942.25;4979977;28;6882;-75
2022/04/16 03:41:13;;;;;;;;;;;;;;;9.19;59.27;101938.78;4980194;28;6768;-75
2022/04/16 03:43:39;;;;;;;;;;;;;;;9.19;57.97;101941.34;4994708;28;6915;-75
2022/04/16 03:46:05;;;;;;;;;;;;;;;9.17;57.88;101944.69;4980672;28;6768;-75
2022/04/16 03:48:31;;;;;;;;;;;;;;;9.16;58.67;101944.56;4996459;28;6788;-75
2022/04/16 03:50:56;;;;;;;;;;;;;;;9.14;58.67;101939.34;4979799;28;6859;-75
2022/04/16 03:53:22;;;;;;;;;;;;;;;9.12;58.66;101939.97;4979365;28;9592;-75
2022/04/16 04:01:16;;;;;;;;;;;;;;;9.03;58.62;101946.16;4980426;28;6907;-75
2022/04/16 04:03:41;;;;;;;;;;;;;;;9.02;58.66;101952.03;4982713;28;6787;-75
2022/04/16 04:06:07;;;;;;;;;;;;;;;9.01;58.33;101950.25;4982180;28;7321;-75
2022/04/16 04:08:33;;;;;;;;;;;;;;;9.01;58.47;101949.34;4983183;28;6840;-75
2022/04/16 04:10:59;;;;;;;;;;;;;;;8.99;57.97;101954.38;4983611;28;6804;-75
2022/04/16 04:13:25;;;;;;;;;;;;;;;8.98;58.62;101951.69;4983885;28;6796;-75
2022/04/16 04:15:52;;;;;;;;;;;;;;;8.97;57.99;101958.44;4984163;28;6788;-75
2022/04/16 04:18:17;;;;;;;;;;;;;;;8.96;58.14;101956.66;4982827;28;6812;-75
2022/04/16 04:20:43;;;;;;;;;;;;;;;8.96;59.23;101963.47;4982435;28;6906;-75
2022/04/16 04:23:09;;;;;;;;;;;;;;;8.95;58.71;101962.56;4982559;28;6788;-75
2022/04/16 04:25:35;;;;;;;;;;;;;;;8.94;58.86;101965.88;4982447;28;7204;-75
2022/04/16 04:28:00;;;;;;;;;;;;;;;8.93;58.49;101968.31;4984416;28;7238;-75
2022/04/16 04:30:26;;;;;;;;;;;;;;;8.93;58.65;101970.88;4968290;28;6787;-75
2022/04/16 04:32:52;;;;;;;;;;;;;;;8.93;58.83;101975.97;4948475;28;7297;-75
2022/04/16 04:35:17;;;;;;;;;;;;;;;8.92;58.60;101975.09;4983163;28;6993;-75
2022/04/16 04:37:43;;;;;;;;;;;;;;;8.94;59.22;101988.03;4999033;28;6784;-75
2022/04/16 04:40:09;;;;;;;;;;;;;;;8.93;58.70;101982.00;4982970;28;6795;-75
2022/04/16 04:42:36;;;;;;;;;;;;;;;8.92;58.68;101982.78;4968002;28;7202;-75
2022/04/16 04:45:13;;;;;;;;;;;;;;;8.91;59.44;101985.19;4965031;28;7062;-75
2022/04/16 04:47:39;;;;;;;;;;;;;;;8.91;58.33;101988.66;4983169;28;7082;-75
2022/04/16 04:50:06;;;;;;;;;;;;;;;8.91;59.42;101991.22;4962147;28;6972;-75
2022/04/16 04:52:36;;;;;;;;;;;;;;;8.89;58.28;101995.31;4980125;28;6815;-75
2022/04/16 04:55:02;;;;;;;;;;;;;;;8.90;59.63;101992.00;4982696;28;6811;-75
2022/04/16 04:57:28;;;;;;;;;;;;;;;8.89;59.53;101997.88;4978596;28;6962;-75
2022/04/16 04:59:54;;;;;;;;;;;;;;;8.89;59.31;102000.44;4981082;28;6888;-75
2022/04/16 05:02:20;;;;;;;;;;;;;;;8.91;58.63;101998.88;4964466;28;6931;-75
2022/04/16 05:04:46;;;;;;;;;;;;;;;8.94;59.20;102008.47;4980755;28;6795;-75
2022/04/16 05:07:12;;;;;;;;;;;;;;;8.93;59.41;102007.56;4983963;28;6831;-75
2022/04/16 05:09:39;;;;;;;;;;;;;;;8.96;59.29;102012.06;4980571;28;6898;-75
2022/04/16 05:12:05;;;;;;;;;;;;;;;8.98;59.87;102008.84;4993817;28;6982;-75
2022/04/16 05:14:34;;;;;;;;;;;;;;;9.02;59.63;102015.06;4980875;28;6880;-75
2022/04/16 05:17:00;;;;;;;;;;;;;;;9.05;59.67;102020.47;4997179;28;6868;-75
2022/04/16 05:19:26;;;;;;;;;;;;;;;9.09;59.43;102025.03;4980803;28;7272;-75
2022/04/16 05:21:51;;;;;;;;;;;;;;;9.13;60.28;102028.75;4997505;28;6807;-75
2022/04/16 05:24:17;;;;;;;;;;;;;;;9.19;60.06;102033.44;4983201;28;6925;-75
2022/04/16 05:26:43;;;;;;;;;;;;;;;9.24;60.36;102027.03;4997251;28;8325;-75
2022/04/16 05:29:08;;;;;;;;;;;;;;;9.30;60.54;102032.63;4980499;28;7332;-75
2022/04/16 05:31:36;;;;;;;;;;;;;;;9.37;60.10;102034.03;4963577;28;6882;-75
2022/04/16 05:34:21;;;;;;;;;;;;;;;9.44;60.60;102031.16;4978438;28;6812;-75
2022/04/16 05:36:50;;;;;;;;;;;;;;;9.49;60.15;102035.00;4995722;28;6890;-75
2022/04/16 05:39:17;;;;;;;;;;;;;;;9.57;59.54;102041.63;4955199;28;7269;-75
2022/04/16 05:41:43;;;;;;;;;;;;;;;9.64;60.70;102034.41;4965458;28;8055;-75
2022/04/16 05:44:09;;;;;;;;;;;;;;;9.70;59.71;102040.00;4981782;28;6800;-75
2022/04/16 05:46:35;;;;;;;;;;;;;;;9.77;60.98;102042.28;4978720;28;6779;-75
2022/04/16 05:49:01;;;;;;;;;;;;;;;9.84;60.65;102047.06;4981470;28;7209;-75
2022/04/16 05:51:27;;;;;;;;;;;;;;;9.94;59.85;102040.09;4981617;28;6803;-75
2022/04/16 05:53:54;;;;;;;;;;;;;;;10.03;60.62;102043.38;4977371;28;6892;-75
2022/04/16 05:56:21;;;;;;;;;;;;;;;10.12;60.19;102050.88;4984500;28;7256;-75
2022/04/16 05:58:47;;;;;;;;;;;;;;;10.20;60.80;102047.25;4995556;28;7019;-75
2022/04/16 06:01:13;;;;;;;;;;;;;;;10.27;60.90;102053.72;4983391;28;7042;-75
2022/04/16 06:03:39;;;;;;;;;;;;;;;10.36;60.40;102050.94;4981109;28;6800;-75
2022/04/16 06:06:06;;;;;;;;;;;;;;;10.44;60.55;102055.00;4977322;28;7272;-75
2022/04/16 06:08:32;;;;;;;;;;;;;;;10.53;60.36;102060.81;4963690;28;6816;-75
2022/04/16 06:10:58;;;;;;;;;;;;;;;10.61;60.24;102061.38;4997202;28;7971;-75
2022/04/16 06:13:23;;;;;;;;;;;;;;;10.69;60.72;102062.84;4980488;28;6780;-75
2022/04/16 06:15:49;;;;;;;;;;;;;;;10.77;60.63;102068.56;4981894;28;6787;-75
2022/04/16 06:18:15;;;;;;;;;;;;;;;10.84;60.47;102062.22;4980335;28;6973;-75
2022/04/16 06:20:41;;;;;;;;;;;;;;;10.95;60.42;102071.59;4979886;28;6799;-75
2022/04/16 06:23:07;;;;;;;;;;;;;;;11.05;60.47;102067.13;4964852;28;6956;-75
2022/04/16 06:25:34;;;;;;;;;;;;;;;11.12;60.59;102071.94;4980456;28;7908;-75
2022/04/16 06:27:59;;;;;;;;;;;;;;;11.22;60.39;102070.91;4965644;28;7222;-75
2022/04/16 06:30:25;;;;;;;;;;;;;;;11.30;60.49;102076.59;4982044;28;6788;-75
2022/04/16 06:32:51;;;;;;;;;;;;;;;11.36;60.00;102069.34;4963821;28;6867;-75
2022/04/16 06:35:17;;;;;;;;;;;;;;;11.42;60.31;102074.91;4981085;28;7264;-75
2022/04/16 06:37:42;;;;;;;;;;;;;;;11.48;59.92;102071.91;4978504;28;6954;-75
2022/04/16 06:40:10;;;;;;;;;;;;;;;11.55;59.97;102073.22;4978435;28;6791;-75
2022/04/16 06:42:37;;;;;;;;;;;;;;;11.64;60.30;102076.44;4996622;28;6812;-75
2022/04/16 06:45:07;;;;;;;;;;;;;;;11.73;59.88;102077.06;4980336;28;7158;-75
2022/04/16 06:47:33;;;;;;;;;;;;;;;11.81;59.86;102070.81;4978746;28;6823;-75
2022/04/16 06:49:59;;;;;;;;;;;;;;;11.92;59.81;102075.78;4977951;28;6799;-75
2022/04/16 06:52:25;;;;;;;;;;;;;;;12.00;60.11;102077.22;4979648;28;7041;-75
2022/04/16 06:54:50;;;;;;;;;;;;;;;12.09;59.82;102071.84;4983506;28;6776;-75
2022/04/16 06:57:17;;;;;;;;;;;;;;;12.19;59.57;102073.38;4980458;28;6775;-75
2022/04/16 06:59:43;;;;;;;;;;;;;;;12.28;59.70;102070.53;4994918;28;7903;-75
2022/04/16 07:02:10;;;;;;;;;;;;;;;12.36;59.75;102067.72;4995957;28;7225;-75
2022/04/16 07:04:37;;;;;;;;;;;;;;;12.45;59.96;102069.09;4997287;28;6804;-75
2022/04/16 07:07:04;;;;;;;;;;;;;;;12.57;59.55;102071.59;4981623;28;6812;-75
2022/04/16 07:09:29;;;;;;;;;;;;;;;12.67;59.42;102078.25;4981513;28;6796;-75
2022/04/16 07:11:56;;;;;;;;;;;;;;;12.76;59.38;102081.44;4994475;28;7070;-75
2022/04/16 07:14:21;;;;;;;;;;;;;;;12.84;59.12;102082.81;4980800;28;7157;-75
2022/04/16 07:16:48;;;;;;;;;;;;;;;12.95;58.40;102090.38;4980981;28;6880;-75
2022/04/16 07:19:14;;;;;;;;;;;;;;;13.02;58.25;102087.38;4979158;28;6832;-75
2022/04/16 07:21:40;;;;;;;;;;;;;;;13.08;58.45;102077.50;4996735;28;6792;-75
2022/04/16 07:24:05;;;;;;;;;;;;;;;13.14;58.63;102070.19;4976907;28;7225;-75
2022/04/16 07:26:31;;;;;;;;;;;;;;;13.22;58.31;102072.31;4980325;28;7856;-75
2022/04/16 07:28:57;;;;;;;;;;;;;;;13.27;58.47;102073.53;4982706;28;6958;-75
2022/04/16 07:31:23;;;;;;;;;;;;;;;13.36;58.52;102073.19;4992173;28;6784;-75
2022/04/16 07:33:48;;;;;;;;;;;;;;;13.46;57.96;102068.78;4999429;28;6776;-75
2022/04/16 07:36:14;;;;;;;;;;;;;;;13.56;58.06;102069.34;4994060;28;6787;-75
2022/04/16 07:38:43;;;;;;;;;;;;;;;13.64;57.15;102065.56;4977851;28;6951;-76
2022/04/16 07:41:10;;;;;;;;;;;;;;;13.71;57.56;102070.31;4983326;28;6819;-76
2022/04/16 07:43:36;;;;;;;;;;;;;;;13.78;56.69;102062.94;4984465;28;7178;-76
2022/04/16 07:46:02;;;;;;;;;;;;;;;13.87;57.17;102068.66;4940375;28;9828;-76
2022/04/16 07:48:28;;;;;;;;;;;;;;;13.98;57.31;102069.34;4980492;28;6891;-76
2022/04/16 07:50:54;;;;;;;;;;;;;;;14.07;57.15;102072.47;4983939;28;7180;-76
2022/04/16 07:53:20;;;;;;;;;;;;;;;14.18;56.60;102067.94;4980737;28;7034;-76
2022/04/16 07:55:46;;;;;;;;;;;;;;;14.28;56.54;102070.25;4985881;28;6824;-76
2022/04/16 07:58:13;;;;;;;;;;;;;;;14.40;55.98;102079.56;4965003;28;6962;-76
2022/04/16 08:00:39;;;;;;;;;;;;;;;14.52;55.31;102077.69;4984932;28;6812;-76
2022/04/16 08:03:05;;;;;;;;;;;;;;;14.60;56.11;102075.53;4985170;28;7083;-75
2022/04/16 08:05:31;;;;;;;;;;;;;;;14.69;55.25;102068.34;4982999;28;7031;-75
2022/04/16 08:07:57;;;;;;;;;;;;;;;14.77;54.97;102081.72;4982611;28;6973;-75
2022/04/16 08:10:23;;;;;;;;;;;;;;;14.86;55.45;102071.91;4982690;28;7663;-75
2022/04/16 08:12:48;;;;;;;;;;;;;;;14.98;55.34;102082.06;4983319;28;7241;-75
2022/04/16 08:15:15;;;;;;;;;;;;;;;15.10;54.75;102081.88;4987660;28;6860;-75
2022/04/16 08:17:41;;;;;;;;;;;;;;;15.17;54.47;102074.47;4983436;28;7408;-75
2022/04/16 08:20:08;;;;;;;;;;;;;;;15.25;54.46;102087.00;4980141;28;7316;-75
2022/04/16 08:22:38;;;;;;;;;;;;;;;15.33;54.51;102087.41;4983728;28;6974;-75
2022/04/16 08:27:51;;;;;;;;;;;;;;;15.54;54.20;102079.06;4997343;28;6978;-75
2022/04/16 08:30:17;;;;;;;;;;;;;;;15.65;53.42;102075.38;4980375;28;7657;-75
2022/04/16 08:32:45;;;;;;;;;;;;;;;15.76;54.04;102077.66;4984316;28;6900;-75
2022/04/16 08:35:15;;;;;;;;;;;;;;;15.86;52.99;102079.94;4983168;28;7053;-75
2022/04/16 08:37:42;;;;;;;;;;;;;;;15.94;52.95;102081.25;4984395;28;7166;-75
2022/04/16 08:40:10;;;;;;;;;;;;;;;16.04;52.55;102081.75;4983448;28;6955;-75
2022/04/16 08:42:38;;;;;;;;;;;;;;;16.16;52.74;102081.47;4975405;28;6804;-75
2022/04/16 08:45:08;;;;;;;;;;;;;;;16.30;52.18;102080.50;4982307;28;6823;-75
2022/04/16 08:47:35;;;;;;;;;;;;;;;16.44;52.39;102078.63;4983653;28;7266;-75
2022/04/16 08:50:05;;;;;;;;;;;;;;;16.60;51.38;102084.53;4966687;28;7629;-75
2022/04/16 08:52:37;;;;;;;;;;;;;;;16.68;51.00;102091.00;4981695;28;6987;-75
2022/04/16 08:55:09;;;;;;;;;;;;;;;16.74;50.86;102080.06;4981973;28;6887;-75
2022/04/16 08:57:34;;;;;;;;;;;;;;;16.79;50.15;102094.13;4984670;28;7855;-75
2022/04/16 09:00:00;;;;;;;;;;;;;;;16.86;50.44;102087.53;4983541;28;6780;-75
2022/04/16 09:02:27;;;;;;;;;;;;;;;16.96;50.65;102088.91;4963857;28;6884;-76
2022/04/16 09:05:10;;;;;;;;;;;;;;;17.13;50.20;102074.19;4983495;28;7111;-76
2022/04/16 09:07:55;;;;;;;;;;;;;;;17.31;50.27;102081.94;4983487;28;6832;-76
2022/04/16 09:10:27;;;;;;;;;;;;;;;17.52;50.02;102074.28;4980414;28;6836;-75
2022/04/16 09:12:55;;;;;;;;;;;;;;;17.74;49.95;102075.25;4982504;28;6835;-75
2022/04/16 09:15:23;;;;;;;;;;;;;;;17.91;49.82;102074.31;4981634;28;7209;-75
2022/04/16 09:18:06;;;;;;;;;;;;;;;18.09;48.77;102068.19;4979655;28;6816;-75
2022/04/16 09:20:38;;;;;;;;;;;;;;;18.26;48.33;102065.47;4980264;28;6819;-75
2022/04/16 09:23:22;;;;;;;;;;;;;;;18.50;48.03;102067.31;4995289;28;6864;-75
2022/04/16 09:25:49;;;;;;;;;;;;;;;18.68;47.08;102068.06;4968430;28;6963;-76
2022/04/16 09:28:18;;;;;;;;;;;;;;;18.90;46.56;102065.47;4981656;28;7724;-76
2022/04/16 09:30:53;;;;;;;;;;;;;;;19.17;46.30;102062.19;4982977;28;6879;-76
2022/04/16 09:33:20;;;;;;;;;;;;;;;19.55;44.59;102068.88;4976394;28;7235;-76
2022/04/16 09:35:46;;;;;;;;;;;;;;;19.89;43.65;102070.94;4995785;28;6804;-76
2022/04/16 09:38:12;;;;;;;;;;;;;;;20.18;43.59;102068.50;4983049;28;7842;-76
2022/04/16 09:40:38;;;;;;;;;;;;;;;20.63;42.65;102065.69;4963097;28;6844;-76
2022/04/16 09:43:08;;;;;;;;;;;;;;;21.34;41.93;102072.28;4983530;28;6796;-76
2022/04/16 09:45:39;;;;;;;;;;;;;;;22.03;40.77;102059.47;4978202;28;6871;-76
2022/04/16 09:48:11;;;;;;;;;;;;;;;22.55;39.87;102064.28;4997566;28;6983;-76
2022/04/16 09:50:38;;;;;;;;;;;;;;;22.54;39.04;102059.91;4981024;28;6892;-76
2022/04/16 09:53:06;;;;;;;;;;;;;;;22.42;38.51;102062.19;4979069;28;6832;-76
2022/04/16 09:55:33;;;;;;;;;;;;;;;22.32;38.18;102061.06;4981847;28;6808;-76
2022/04/16 09:58:03;;;;;;;;;;;;;;;22.01;37.59;102058.53;4996357;28;6796;-76
2022/04/16 10:00:33;;;;;;;;;;;;;;;22.11;37.77;102056.16;4980893;28;7035;-76
2022/04/16 10:03:00;;;;;;;;;;;;;;;22.17;36.54;102053.72;4981656;28;6784;-76
2022/04/16 10:05:26;;;;;;;;;;;;;;;21.96;36.65;102051.41;4978865;28;6884;-76
2022/04/16 10:07:53;;;;;;;;;;;;;;;21.88;36.73;102049.50;4979142;28;6891;-76
2022/04/16 10:10:40;;;;;;;;;;;;;;;22.16;37.05;102049.34;4996031;28;7185;-76
2022/04/16 10:13:11;;;;;;;;;;;;;;;22.87;36.45;102039.78;4981611;28;6816;-76
2022/04/16 10:16:12;;;;;;;;;;;;;;;23.80;36.23;102035.63;4979624;28;6816;-76
2022/04/16 10:18:38;;;;;;;;;;;;;;;24.60;34.51;102045.75;4980237;28;6839;-76
2022/04/16 10:21:12;;;;;;;;;;;;;;;24.83;33.54;102043.50;4964879;28;8339;-76
2022/04/16 10:23:40;;;;;;;;;;;;;;;24.91;32.96;102048.84;4965986;28;7265;-76
2022/04/16 10:26:12;;;;;;;;;;;;;;;24.93;32.51;102049.78;4981267;28;7230;-76
2022/04/16 10:28:54;;;;;;;;;;;;;;;25.33;32.83;102039.81;4997039;28;7301;-76
2022/04/16 10:31:23;;;;;;;;;;;;;;;25.62;32.08;102047.19;4980929;28;6812;-76
2022/04/16 10:34:28;;;;;;;;;;;;;;;25.78;31.73;102042.09;4979692;28;6891;-76
2022/04/16 10:36:54;;;;;;;;;;;;;;;25.82;31.56;102043.00;4981659;28;7086;-76
2022/04/16 10:39:28;;;;;;;;;;;;;;;25.62;30.84;102041.03;4978829;28;7249;-76
2022/04/16 10:41:58;;;;;;;;;;;;;;;25.55;31.12;102042.72;4993015;28;7214;-76
2022/04/16 10:44:26;;;;;;;;;;;;;;;25.28;30.26;102041.47;4979550;28;7337;-76
2022/04/16 10:46:54;;;;;;;;;;;;;;;24.74;30.59;102043.34;4981539;28;6803;-76
2022/04/16 10:49:26;;;;;;;;;;;;;;;24.51;30.65;102041.25;4979501;28;7415;-76
2022/04/16 10:51:58;;;;;;;;;;;;;;;24.33;31.35;102036.56;4981758;28;7043;-76
2022/04/16 10:54:32;;;;;;;;;;;;;;;24.18;31.50;102045.03;4980389;28;6807;-76
2022/04/16 10:56:59;;;;;;;;;;;;;;;23.82;31.12;102033.91;4981376;28;7015;-76
2022/04/16 10:59:56;;;;;;;;;;;;;;;24.05;32.02;102036.97;4979754;28;7046;-76
2022/04/16 11:02:27;;;;;;;;;;;;;;;24.58;31.05;102039.59;4981885;28;7267;-75
2022/04/16 11:05:07;;;;;;;;;;;;;;;24.82;30.39;102036.50;4995412;28;7565;-75
2022/04/16 11:07:39;;;;;;;;;;;;;;;24.59;30.08;102031.78;4981140;28;7221;-75
2022/04/16 11:10:11;;;;;;;;;;;;;;;24.38;31.25;102027.06;4980700;28;7452;-76
2022/04/16 11:12:41;;;;;;;;;;;;;;;24.68;30.75;102031.00;4998252;28;6803;-76
2022/04/16 11:15:24;;;;;;;;;;;;;;;25.19;30.41;102012.50;4982624;28;6812;-76
2022/04/16 11:17:57;;;;;;;;;;;;;;;25.72;29.66;102011.41;4986342;28;6800;-76
2022/04/16 11:20:26;;;;;;;;;;;;;;;25.81;29.08;102015.88;4985012;28;6827;-76
2022/04/16 11:22:52;;;;;;;;;;;;;;;25.52;29.03;102019.06;5000653;28;6891;-76
2022/04/16 11:25:23;;;;;;;;;;;;;;;25.21;28.92;102013.44;4983444;28;6785;-76
2022/04/16 11:36:11;;;;;;;;;;;;;;;27.37;27.98;101996.78;4984243;28;6820;-76
2022/04/16 11:38:41;;;;;;;;;;;;;;;27.69;27.17;102003.03;4985727;28;6819;-76
2022/04/16 11:41:11;;;;;;;;;;;;;;;27.53;26.44;101995.09;4964289;28;6804;-76
2022/04/16 11:43:47;;;;;;;;;;;;;;;27.10;26.95;101995.81;4983419;28;8107;-76
2022/04/16 11:46:14;;;;;;;;;;;;;;;26.98;27.07;102003.63;4984501;28;7015;-76
2022/04/16 11:48:45;;;;;;;;;;;;;;;27.21;27.17;102001.09;4979502;28;6954;-76
2022/04/16 11:51:13;;;;;;;;;;;;;;;27.35;25.77;102006.41;4963886;28;6960;-76
2022/04/16 11:53:44;;;;;;;;;;;;;;;27.58;26.46;101992.50;4966972;28;6984;-76
2022/04/16 11:56:10;;;;;;;;;;;;;;;28.11;25.79;101998.69;4983629;28;6808;-76
2022/04/16 11:58:35;;;;;;;;;;;;;;;28.27;25.14;101999.59;4998421;28;7167;-76
2022/04/16 12:01:03;;;;;;;;;;;;;;;27.95;25.50;101994.28;4984731;28;6972;-76
2022/04/16 12:03:40;;;;;;;;;;;;;;;27.89;25.54;101999.53;4982693;28;8810;-76
2022/04/16 12:06:11;;;;;;;;;;;;;;;28.12;25.58;101992.53;4997383;28;6800;-76
2022/04/16 12:08:37;;;;;;;;;;;;;;;28.36;24.91;102003.09;4983975;28;6955;-76
2022/04/16 12:11:03;;;;;;;;;;;;;;;28.24;25.03;102001.34;4983893;28;7273;-76
2022/04/16 12:13:41;;;;;;;;;;;;;;;27.97;24.85;101990.78;4986102;28;6884;-76
2022/04/16 12:16:10;;;;;;;;;;;;;;;27.78;24.82;101987.25;4962769;28;7278;-76
2022/04/16 12:18:48;;;;;;;;;;;;;;;27.83;25.43;101989.88;4982992;28;6812;-76
2022/04/16 12:21:17;;;;;;;;;;;;;;;28.03;25.21;101997.81;4982652;28;7153;-76
2022/04/16 12:23:44;;;;;;;;;;;;;;;28.35;24.87;101996.94;4984623;28;8318;-76
2022/04/16 12:26:15;;;;;;;;;;;;;;;28.62;23.97;101999.50;4982302;28;7284;-76
2022/04/16 12:28:51;;;;;;;;;;;;;;;28.72;23.01;102003.03;4982471;28;6859;-76
2022/04/16 12:31:29;;;;;;;;;;;;;;;28.89;23.62;101995.97;4941670;28;6870;-76
2022/04/16 12:33:55;;;;;;;;;;;;;;;29.18;22.65;101987.06;4998822;28;6807;-77
2022/04/16 12:36:20;;;;;;;;;;;;;;;29.51;22.88;101985.13;4998312;28;6825;-76
2022/04/16 12:38:46;;;;;;;;;;;;;;;29.81;22.93;101982.28;4981121;28;6795;-76
2022/04/16 12:41:12;;;;;;;;;;;;;;;30.02;22.67;101977.72;4983906;28;6811;-76
2022/04/16 12:43:39;;;;;;;;;;;;;;;30.13;22.58;101985.56;4982067;28;7836;-76
2022/04/16 12:46:05;;;;;;;;;;;;;;;30.16;22.14;101983.75;4966029;28;6896;-76
2022/04/16 12:48:31;;;;;;;;;;;;;;;30.08;22.16;101969.75;4977874;28;7030;-76
2022/04/16 12:50:57;;;;;;;;;;;;;;;29.99;22.52;101973.31;4997149;28;7009;-76
2022/04/16 12:53:24;;;;;;;;;;;;;;;29.81;22.31;101969.06;4984705;28;7178;-76
2022/04/16 12:55:50;;;;;;;;;;;;;;;29.75;22.56;101967.38;4983800;28;6820;-76
2022/04/16 12:58:15;;;;;;;;;;;;;;;29.68;23.06;101963.00;4981996;28;7153;-76
2022/04/16 13:00:41;;;;;;;;;;;;;;;29.57;22.29;101972.78;4984786;28;6941;-76
2022/04/16 13:03:07;;;;;;;;;;;;;;;29.41;22.21;101964.91;4963370;28;9464;-76
2022/04/16 13:05:33;;;;;;;;;;;;;;;29.41;22.66;101964.91;4983322;28;6788;-76
2022/04/16 13:07:59;;;;;;;;;;;;;;;29.40;22.79;101965.81;4958996;28;7577;-76
2022/04/16 13:10:26;;;;;;;;;;;;;;;29.25;22.52;101951.78;4955733;28;6872;-76
2022/04/16 13:12:53;;;;;;;;;;;;;;;28.98;22.30;101951.97;4966341;28;6859;-76
2022/04/16 13:15:19;;;;;;;;;;;;;;;28.80;22.99;101959.03;4978408;28;6816;-76